| time (UTC) | temp C | wind direction | speed KPH | gust KPH | rain 1hr cm | rain 24hr cm | rain mn cm | humidity % | barometer mb |
| 20260504045115 | 17 | 344 | 19.3 | 38.6 | 0.00 | 0.00 | 0.00 | 60 | 1011.1 |
| 20260504044614 | 17 | 310 | 17.7 | 37.0 | 0.00 | 0.00 | 0.00 | 60 | 1011.2 |
| 20260504044138 | 17 | 319 | 19.3 | 37.0 | 0.00 | 0.00 | 0.00 | 59 | 1011.2 |
| 20260503220805 | 14 | 338 | 16.1 | 32.2 | 0.00 | 0.00 | 0.00 | 77 | 1013.0 |
| 20260503220305 | 14 | 348 | 16.1 | 32.2 | 0.00 | 0.00 | 0.00 | 77 | 1013.0 |
| 20260503215804 | 13 | 355 | 16.1 | 29.0 | 0.00 | 0.00 | 0.00 | 78 | 1012.9 |
| 20260503215305 | 13 | 9 | 12.9 | 29.0 | 0.00 | 0.00 | 0.00 | 79 | 1012.9 |
| 20260503214807 | 13 | 5 | 12.9 | 25.7 | 0.00 | 0.00 | 0.00 | 79 | 1012.9 |
| 20260503214304 | 13 | 335 | 12.9 | 25.7 | 0.00 | 0.00 | 0.00 | 79 | 1012.8 |
| 20260503213805 | 13 | 346 | 12.9 | 29.0 | 0.00 | 0.00 | 0.00 | 79 | 1013.0 |
| 20260503213305 | 13 | 341 | 12.9 | 29.0 | 0.00 | 0.00 | 0.00 | 79 | 1013.0 |
| 20260503212805 | 13 | 342 | 14.5 | 25.7 | 0.00 | 0.00 | 0.00 | 79 | 1013.0 |
| 20260503212305 | 13 | 355 | 12.9 | 25.7 | 0.00 | 0.00 | 0.00 | 79 | 1013.0 |
| 20260503211804 | 13 | 329 | 12.9 | 29.0 | 0.00 | 0.00 | 0.00 | 78 | 1012.9 |
| 20260503211305 | 13 | 345 | 12.9 | 29.0 | 0.00 | 0.00 | 0.00 | 78 | 1012.9 |
| 20260503211140 | 13 | 355 | 12.9 | 24.1 | 0.00 | 0.00 | 0.00 | 77 | 1012.8 |
| 20260503202749 | 13 | 317 | 9.7 | 19.3 | 0.00 | 0.00 | 0.00 | 76 | 1012.8 |
| 20260503202249 | 13 | 37 | 8.0 | 19.3 | 0.00 | 0.00 | 0.00 | 77 | 1012.7 |
| 20260503201749 | 13 | 344 | 8.0 | 19.3 | 0.00 | 0.00 | 0.00 | 77 | 1012.7 |
| 20260503201248 | 13 | 355 | 8.0 | 16.1 | 0.00 | 0.00 | 0.00 | 78 | 1012.6 |
| 20260503200758 | 13 | 340 | 8.0 | 16.1 | 0.00 | 0.00 | 0.00 | 78 | 1012.5 |
| 20260503194837 | 13 | 314 | 8.0 | 17.7 | 0.00 | 0.00 | 0.00 | 79 | 1012.5 |
| 20260503194832 | 13 | 350 | 9.7 | 17.7 | 0.00 | 0.00 | 0.00 | 79 | 1012.4 |
| 20260503192250 | 13 | 347 | 8.0 | 20.9 | 0.00 | 0.00 | 0.00 | 79 | 1012.8 |
| 20260503191759 | 13 | 17 | 9.7 | 19.3 | 0.00 | 0.00 | 0.00 | 80 | 1012.7 |
| 20260503191303 | 13 | 355 | 8.0 | 19.3 | 0.00 | 0.00 | 0.00 | 80 | 1012.9 |
| 20260503190752 | 13 | 351 | 8.0 | 19.3 | 0.00 | 0.00 | 0.00 | 80 | 1013.0 |
| 20260503190520 | 13 | 355 | 8.0 | 22.5 | 0.00 | 0.00 | 0.00 | 80 | 1013.0 |
| 20260503190241 | 13 | 30 | 9.7 | 22.5 | 0.00 | 0.00 | 0.00 | 80 | 1012.9 |
| 20260503190021 | 13 | 30 | 9.7 | 22.5 | 0.00 | 0.00 | 0.00 | 80 | 1012.9 |
| 20260503185753 | 13 | 30 | 9.7 | 22.5 | 0.00 | 0.00 | 0.00 | 80 | 1012.9 |
| 20260503185246 | 13 | 13 | 9.7 | 20.9 | 0.00 | 0.00 | 0.00 | 81 | 1013.0 |
| 20260503184749 | 13 | 350 | 9.7 | 20.9 | 0.00 | 0.00 | 0.00 | 81 | 1013.0 |
| 20260503184512 | 13 | 347 | 8.0 | 20.9 | 0.00 | 0.00 | 0.00 | 81 | 1013.1 |
| 20260503183805 | 13 | 355 | 8.0 | 17.7 | 0.00 | 0.00 | 0.00 | 81 | 1013.1 |
| 20260503183257 | 13 | 355 | 8.0 | 16.1 | 0.00 | 0.00 | 0.00 | 81 | 1013.0 |
| 20260503182749 | 13 | 331 | 8.0 | 16.1 | 0.00 | 0.00 | 0.00 | 81 | 1013.1 |
| 20260503182252 | 13 | 345 | 8.0 | 20.9 | 0.00 | 0.00 | 0.00 | 82 | 1013.2 |
| 20260503181744 | 13 | 20 | 8.0 | 20.9 | 0.00 | 0.00 | 0.00 | 82 | 1013.1 |
| 20260503181247 | 13 | 333 | 8.0 | 14.5 | 0.00 | 0.00 | 0.00 | 82 | 1013.1 |
| 20260503181022 | 13 | 350 | 6.4 | 14.5 | 0.00 | 0.00 | 0.00 | 82 | 1013.1 |
| 20260503180258 | 13 | 11 | 6.4 | 22.5 | 0.00 | 0.00 | 0.00 | 82 | 1013.2 |
| 20260503175800 | 13 | 355 | 6.4 | 22.5 | 0.00 | 0.00 | 0.00 | 83 | 1013.3 |
| 20260503175243 | 13 | 5 | 6.4 | 19.3 | 0.00 | 0.00 | 0.00 | 83 | 1013.3 |
| 20260503174751 | 13 | 326 | 4.8 | 17.7 | 0.00 | 0.00 | 0.00 | 83 | 1013.4 |
| 20260503174239 | 13 | 5 | 4.8 | 16.1 | 0.00 | 0.00 | 0.00 | 83 | 1013.6 |
| 20260503173810 | 13 | 34 | 4.8 | 16.1 | 0.00 | 0.00 | 0.00 | 83 | 1013.6 |
| 20260503173506 | 13 | 5 | 4.8 | 9.7 | 0.00 | 0.00 | 0.00 | 83 | 1013.6 |
| 20260503173253 | 13 | 5 | 4.8 | 9.7 | 0.00 | 0.00 | 0.00 | 83 | 1013.6 |
| 20260503172758 | 13 | 326 | 4.8 | 8.0 | 0.00 | 0.00 | 0.00 | 83 | 1013.7 |
| 20260503172248 | 13 | 32 | 4.8 | 8.0 | 0.00 | 0.00 | 0.00 | 83 | 1013.7 |
| 20260503171738 | 13 | 22 | 4.8 | 11.3 | 0.00 | 0.00 | 0.00 | 83 | 1013.7 |
| 20260503171249 | 13 | 5 | 4.8 | 11.3 | 0.00 | 0.00 | 0.00 | 83 | 1013.8 |
| 20260503170748 | 13 | 19 | 4.8 | 9.7 | 0.00 | 0.00 | 0.00 | 83 | 1013.8 |
| 20260503170500 | 13 | 22 | 4.8 | 12.9 | 0.00 | 0.00 | 0.00 | 83 | 1013.8 |
| 20260503150715 | 13 | 350 | 11.3 | 20.9 | 0.00 | 0.00 | 0.00 | 82 | 1013.9 |
| 20260503150158 | 13 | 340 | 11.3 | 22.5 | 0.00 | 0.00 | 0.00 | 82 | 1013.9 |
| 20260503131223 | 15 | 5 | 8.0 | 17.7 | 0.00 | 0.00 | 0.81 | 82 | 1014.8 |
| 20260503130455 | 15 | 355 | 8.0 | 19.3 | 0.00 | 0.00 | 0.81 | 81 | 1014.8 |
| 20260503130232 | 15 | 355 | 9.7 | 19.3 | 0.00 | 0.00 | 0.81 | 81 | 1014.8 |
| 20260503080816 | 16 | 351 | 1.6 | 8.0 | 0.00 | 0.00 | 0.81 | 66 | 1013.1 |
| 20260503080309 | 16 | 349 | 3.2 | 8.0 | 0.00 | 0.00 | 0.81 | 65 | 1013.0 |
| 20260503072727 | 17 | 310 | 4.8 | 14.5 | 0.00 | 0.00 | 0.81 | 62 | 1012.8 |
| 20260503072221 | 17 | 9 | 4.8 | 12.9 | 0.00 | 0.00 | 0.81 | 61 | 1012.8 |
| 20260503072028 | 17 | 333 | 6.4 | 14.5 | 0.00 | 0.00 | 0.81 | 61 | 1012.9 |
| 20260503071249 | 17 | 317 | 6.4 | 17.7 | 0.00 | 0.00 | 0.81 | 59 | 1012.9 |
| 20260503070703 | 17 | 0 | 4.8 | 17.7 | 0.00 | 0.00 | 0.81 | 58 | 1012.9 |
| 20260503070157 | 17 | 344 | 4.8 | 14.5 | 0.00 | 0.00 | 0.81 | 58 | 1012.8 |